createdAt,value
2022-11-20T00:01:15.662Z,30.05
2022-11-20T00:03:19.606Z,31.00
2022-11-20T00:05:22.472Z,29.65
2022-11-20T00:07:38.554Z,27.92
2022-11-20T00:09:50.773Z,30.35
2022-11-20T00:11:52.619Z,29.50
2022-11-20T00:13:58.201Z,31.27
2022-11-20T00:16:19.865Z,32.50
2022-11-20T00:18:23.675Z,29.85
2022-11-20T00:20:29.723Z,32.55
2022-11-20T00:22:34.642Z,30.60
2022-11-20T00:24:41.664Z,32.30
2022-11-20T00:26:45.355Z,30.05
2022-11-20T00:29:01.486Z,32.70
2022-11-20T00:31:14.339Z,31.80
2022-11-20T00:33:16.172Z,30.15
2022-11-20T00:35:19.330Z,30.23
2022-11-20T00:37:21.254Z,29.20
2022-11-20T00:39:25.131Z,29.70
2022-11-20T00:41:35.042Z,29.58
2022-11-20T00:43:37.923Z,30.42
2022-11-20T00:45:39.736Z,30.80
2022-11-20T00:47:41.602Z,31.02
2022-11-20T00:49:43.536Z,30.65
2022-11-20T00:51:45.390Z,30.60
2022-11-20T00:53:47.769Z,30.58
2022-11-20T00:55:55.997Z,30.73
2022-11-20T00:57:57.780Z,30.98
2022-11-20T00:59:59.596Z,29.27
2022-11-20T01:02:01.396Z,29.92
2022-11-20T01:04:04.651Z,29.67
2022-11-20T01:06:13.551Z,28.92
2022-11-20T01:08:15.351Z,28.33
2022-11-20T01:10:18.538Z,28.75
2022-11-20T01:12:20.415Z,29.63
2022-11-20T01:14:25.246Z,28.38
2022-11-20T01:16:30.373Z,27.08
2022-11-20T01:18:34.028Z,28.05
2022-11-20T01:20:37.177Z,26.65
2022-11-20T01:22:40.448Z,25.90
2022-11-20T01:24:43.249Z,28.08
2022-11-20T01:26:46.481Z,27.90
2022-11-20T01:28:49.372Z,28.02
2022-11-20T01:30:51.229Z,26.25
2022-11-20T01:32:54.040Z,27.35
2022-11-20T01:34:55.880Z,28.63
2022-11-20T01:36:57.671Z,29.00
2022-11-20T01:39:02.236Z,27.67
2022-11-20T01:41:11.817Z,27.08
2022-11-20T01:43:23.733Z,26.05
2022-11-20T01:45:47.223Z,26.52
2022-11-20T01:47:50.871Z,27.48
2022-11-20T01:50:18.041Z,26.02
2022-11-20T01:52:43.901Z,26.77
2022-11-20T01:54:59.897Z,26.65
2022-11-20T01:57:03.057Z,26.92
2022-11-20T01:59:08.425Z,25.33
2022-11-20T02:01:12.769Z,26.92
2022-11-20T02:03:18.305Z,26.25
2022-11-20T02:05:23.213Z,24.73
2022-11-20T02:07:25.303Z,26.17
2022-11-20T02:09:27.778Z,27.23
2022-11-20T02:11:31.892Z,27.90
2022-11-20T02:13:46.971Z,28.17
2022-11-20T02:15:50.738Z,25.98
2022-11-20T02:17:58.512Z,28.13
2022-11-20T02:20:00.384Z,27.92
2022-11-20T02:22:13.101Z,28.13
2022-11-20T02:24:22.761Z,27.17
2022-11-20T02:26:28.625Z,27.65
2022-11-20T02:28:37.851Z,27.67
2022-11-20T02:30:39.873Z,30.02
2022-11-20T02:32:41.841Z,29.52
2022-11-20T02:34:49.912Z,27.67
2022-11-20T02:36:58.740Z,28.63
2022-11-20T02:39:00.741Z,28.83
2022-11-20T02:41:02.572Z,29.48
2022-11-20T02:43:04.369Z,30.02
2022-11-20T02:45:07.398Z,29.45
2022-11-20T02:47:19.334Z,28.00
2022-11-20T02:49:21.531Z,28.25
2022-11-20T02:51:25.070Z,28.85
2022-11-20T02:53:28.904Z,28.23
2022-11-20T02:55:40.250Z,28.08
2022-11-20T02:57:43.066Z,27.70
2022-11-20T02:59:44.915Z,27.00
2022-11-20T03:01:46.769Z,27.80
2022-11-20T03:04:13.557Z,29.75
2022-11-20T03:06:17.446Z,28.40
2022-11-20T03:08:19.293Z,26.77
2022-11-20T03:10:21.113Z,28.15
2022-11-20T03:12:22.928Z,28.02
2022-11-20T03:14:24.707Z,28.88
2022-11-20T03:16:33.698Z,28.42
2022-11-20T03:18:36.588Z,27.50
2022-11-20T03:20:38.446Z,27.08
2022-11-20T03:22:42.336Z,27.70
2022-11-20T03:24:50.290Z,27.70
2022-11-20T03:26:52.075Z,27.88
2022-11-20T03:28:58.736Z,27.33
2022-11-20T03:31:10.221Z,26.55
2022-11-20T03:33:12.019Z,26.27
2022-11-20T03:35:13.820Z,25.95
2022-11-20T03:37:16.705Z,25.85
2022-11-20T03:39:20.657Z,26.55
2022-11-20T03:41:37.023Z,25.42
2022-11-20T03:43:39.532Z,25.60
2022-11-20T03:45:41.405Z,26.33
2022-11-20T03:47:47.573Z,25.40
2022-11-20T03:49:51.213Z,26.33
2022-11-20T03:51:53.985Z,25.35
2022-11-20T03:53:59.246Z,25.55
2022-11-20T03:56:01.013Z,26.58
2022-11-20T03:58:02.942Z,25.00
2022-11-20T04:00:06.015Z,26.55
2022-11-20T04:02:07.894Z,25.25
2022-11-20T04:04:09.883Z,24.83
2022-11-20T04:06:18.620Z,24.08
2022-11-20T04:08:20.440Z,23.77
2022-11-20T04:10:28.526Z,25.30
2022-11-20T04:12:38.233Z,25.85
2022-11-20T04:14:40.268Z,24.80
2022-11-20T04:16:42.992Z,26.63
2022-11-20T04:18:45.253Z,24.98
2022-11-20T04:20:48.046Z,26.73
2022-11-20T04:22:49.932Z,24.77
2022-11-20T04:24:53.789Z,24.58
2022-11-20T04:26:55.701Z,25.08
2022-11-20T04:29:00.375Z,25.17
2022-11-20T04:31:12.984Z,24.60
2022-11-20T04:33:14.818Z,24.48
2022-11-20T04:35:16.669Z,24.75
2022-11-20T04:37:31.336Z,23.70
2022-11-20T04:39:34.197Z,24.35
2022-11-20T04:41:37.536Z,24.67
2022-11-20T04:43:41.347Z,23.77
2022-11-20T04:45:44.204Z,24.60
2022-11-20T04:47:52.048Z,25.25
2022-11-20T04:49:53.996Z,24.63
2022-11-20T04:51:55.882Z,24.67
2022-11-20T04:53:57.790Z,25.05
2022-11-20T04:56:08.946Z,24.55
2022-11-20T04:58:17.466Z,24.90
2022-11-20T05:00:21.472Z,24.70
2022-11-20T05:02:23.327Z,25.17
2022-11-20T05:04:28.746Z,25.00
2022-11-20T05:06:33.333Z,26.17
2022-11-20T05:08:35.667Z,25.73
2022-11-20T05:10:37.536Z,27.08
2022-11-20T05:12:39.374Z,25.55
2022-11-20T05:14:45.500Z,24.52
2022-11-20T05:16:47.368Z,27.00
2022-11-20T05:18:52.940Z,26.83
2022-11-20T05:20:58.922Z,30.00
2022-11-20T05:23:03.283Z,44.22
2022-11-20T05:25:15.237Z,44.17
2022-11-20T05:27:17.086Z,43.05
2022-11-20T05:29:19.103Z,55.58
2022-11-20T05:31:27.061Z,62.17
2022-11-20T05:33:31.037Z,53.28
2022-11-20T05:35:35.966Z,34.20
2022-11-20T05:37:37.787Z,34.75
2022-11-20T05:39:39.588Z,29.33
2022-11-20T05:41:47.296Z,27.85
2022-11-20T05:43:51.624Z,27.13
2022-11-20T05:45:57.443Z,25.60
2022-11-20T05:48:03.863Z,26.80
2022-11-20T05:50:06.163Z,27.65
2022-11-20T05:52:08.095Z,28.58
2022-11-20T05:54:17.034Z,34.72
2022-11-20T05:56:21.649Z,37.50
2022-11-20T05:58:23.546Z,46.67
2022-11-20T06:00:29.428Z,33.92
2022-11-20T06:02:31.265Z,28.17
2022-11-20T06:04:34.090Z,29.17
2022-11-20T06:06:37.008Z,28.05
2022-11-20T06:08:38.839Z,27.17
2022-11-20T06:10:40.650Z,25.90
2022-11-20T06:12:42.506Z,26.08
2022-11-20T06:14:44.418Z,26.35
2022-11-20T06:16:46.232Z,26.08
2022-11-20T06:18:48.571Z,26.83
2022-11-20T06:20:50.374Z,27.70
2022-11-20T06:22:52.285Z,27.15
2022-11-20T06:24:57.236Z,26.08
2022-11-20T06:26:59.036Z,26.73
2022-11-20T06:29:00.841Z,25.90
2022-11-20T06:31:03.190Z,26.23
2022-11-20T06:33:06.041Z,26.42
2022-11-20T06:35:08.325Z,26.63
2022-11-20T06:37:18.230Z,27.20
2022-11-20T06:39:20.378Z,29.20
2022-11-20T06:41:30.557Z,28.95
2022-11-20T06:43:37.662Z,26.90
2022-11-20T06:45:39.489Z,27.25
2022-11-20T06:47:42.387Z,27.55
2022-11-20T06:49:44.231Z,26.20
2022-11-20T06:51:49.196Z,25.45
2022-11-20T06:53:52.092Z,25.73
2022-11-20T06:55:57.938Z,25.30
2022-11-20T06:57:59.880Z,26.27
2022-11-20T07:00:01.846Z,25.13
2022-11-20T07:02:03.892Z,25.20
2022-11-20T07:04:06.873Z,24.88
2022-11-20T07:06:16.899Z,26.27
2022-11-20T07:08:18.712Z,27.02
2022-11-20T07:10:20.535Z,26.42
2022-11-20T07:12:22.419Z,27.08
2022-11-20T07:14:39.370Z,26.85
2022-11-20T07:16:41.273Z,25.15
2022-11-20T07:18:50.211Z,26.75
2022-11-20T07:20:56.579Z,23.60
2022-11-20T07:22:59.179Z,24.42
2022-11-20T07:25:01.024Z,24.73
2022-11-20T07:27:02.835Z,24.85
2022-11-20T07:29:04.782Z,24.13
2022-11-20T07:31:19.276Z,24.85
2022-11-20T07:33:21.695Z,23.58
2022-11-20T07:35:25.613Z,24.38
2022-11-20T07:37:35.789Z,23.98
2022-11-20T07:39:38.679Z,24.35
2022-11-20T07:41:40.612Z,25.77
2022-11-20T07:43:42.787Z,24.75
2022-11-20T07:45:44.639Z,25.45
2022-11-20T07:47:49.214Z,25.25
2022-11-20T07:49:51.057Z,24.85
2022-11-20T07:52:04.161Z,26.20
2022-11-20T07:54:11.802Z,27.35
2022-11-20T07:56:15.260Z,26.58
2022-11-20T07:58:24.226Z,26.80
2022-11-20T08:00:28.192Z,26.77
2022-11-20T08:02:42.294Z,26.50
2022-11-20T08:04:46.216Z,25.30
2022-11-20T08:06:49.075Z,25.45
2022-11-20T08:08:57.992Z,26.33
2022-11-20T08:11:18.433Z,26.70
2022-11-20T08:13:40.061Z,27.25
2022-11-20T08:15:43.108Z,27.80
2022-11-20T08:17:56.971Z,28.88
2022-11-20T08:20:08.465Z,26.70
2022-11-20T08:22:35.565Z,26.10
2022-11-20T08:24:44.235Z,27.85
2022-11-20T08:26:46.208Z,27.05
2022-11-20T08:28:49.070Z,27.38
2022-11-20T08:30:59.592Z,28.70
2022-11-20T08:33:19.879Z,29.17
2022-11-20T08:35:23.305Z,27.77
2022-11-20T08:37:42.629Z,28.40
2022-11-20T08:39:52.041Z,28.77
2022-11-20T08:41:59.869Z,29.70
2022-11-20T08:44:20.067Z,30.48
2022-11-20T08:46:27.993Z,27.60
2022-11-20T08:48:29.910Z,27.40
2022-11-20T08:50:33.636Z,27.90
2022-11-20T08:52:40.087Z,27.52
2022-11-20T08:54:50.750Z,27.88
2022-11-20T08:56:57.841Z,27.17
2022-11-20T08:59:31.594Z,26.30
2022-11-20T09:01:33.634Z,28.20
2022-11-20T09:03:36.526Z,25.98
2022-11-20T09:05:44.457Z,25.23
2022-11-20T09:07:47.311Z,26.52
2022-11-20T09:10:22.750Z,26.90
2022-11-20T09:12:30.603Z,27.38
2022-11-20T09:14:42.931Z,26.13
2022-11-20T09:16:47.604Z,26.38
2022-11-20T09:19:13.488Z,27.95
2022-11-20T09:21:24.123Z,27.83
2022-11-20T09:23:27.294Z,25.95
2022-11-20T09:25:35.076Z,26.20
2022-11-20T09:27:45.306Z,28.35
2022-11-20T09:29:55.250Z,31.23
2022-11-20T09:31:59.137Z,27.77
2022-11-20T09:34:00.967Z,26.50
2022-11-20T09:36:05.097Z,25.73
2022-11-20T09:38:10.151Z,25.45
2022-11-20T09:40:41.641Z,25.40
2022-11-20T09:43:25.008Z,25.40
2022-11-20T09:46:09.527Z,25.33
2022-11-20T09:48:49.801Z,24.40
2022-11-20T09:51:20.333Z,28.10
2022-11-20T09:53:56.408Z,26.48
2022-11-20T09:56:06.165Z,26.63
2022-11-20T09:58:22.537Z,28.38
2022-11-20T10:00:31.631Z,25.88
2022-11-20T10:02:43.218Z,26.52
2022-11-20T10:04:53.752Z,25.17
2022-11-20T10:07:38.284Z,26.85
2022-11-20T10:09:51.010Z,26.98
2022-11-20T10:12:11.288Z,27.13
2022-11-20T10:14:33.606Z,25.95
2022-11-20T10:17:05.150Z,26.58
2022-11-20T10:23:05.573Z,26.85
2022-11-20T10:25:19.667Z,25.30
2022-11-20T10:27:23.753Z,25.92
2022-11-20T10:29:40.840Z,24.60
2022-11-20T10:31:52.359Z,23.60
2022-11-20T10:34:49.760Z,24.45
2022-11-20T10:37:04.920Z,25.80
2022-11-20T10:39:37.272Z,26.08
2022-11-20T10:45:38.159Z,25.58
2022-11-20T10:47:53.110Z,28.05
2022-11-20T10:50:14.497Z,26.48
2022-11-20T10:52:58.601Z,26.63
2022-11-20T10:55:35.490Z,25.42
2022-11-20T10:58:09.250Z,24.70
2022-11-20T11:00:13.702Z,22.40
2022-11-20T11:02:20.565Z,23.65
2022-11-20T11:04:33.959Z,22.98
2022-11-20T11:06:48.485Z,23.52
2022-11-20T11:09:17.122Z,24.80
2022-11-20T11:11:32.258Z,26.08
2022-11-20T11:13:34.178Z,25.58
2022-11-20T11:15:42.378Z,24.88
2022-11-20T11:17:48.978Z,24.70
2022-11-20T11:20:05.324Z,22.33
2022-11-20T11:22:17.189Z,24.77
2022-11-20T11:24:44.694Z,25.23
2022-11-20T11:27:11.279Z,23.25
2022-11-20T11:29:30.590Z,23.70
2022-11-20T11:31:42.371Z,25.13
2022-11-20T11:36:23.609Z,21.65
2022-11-20T11:38:46.053Z,25.45
2022-11-20T11:40:48.484Z,21.27
2022-11-20T11:42:55.876Z,21.13
2022-11-20T11:45:07.838Z,21.80
2022-11-20T11:47:25.764Z,21.50
2022-11-20T11:49:32.718Z,22.80
2022-11-20T11:51:52.539Z,20.58
2022-11-20T11:54:01.008Z,22.55
2022-11-20T11:56:18.130Z,22.58
2022-11-20T11:58:48.727Z,22.13
2022-11-20T12:01:30.493Z,21.55
2022-11-20T12:03:38.826Z,21.40
2022-11-20T12:05:46.207Z,24.08
2022-11-20T12:08:12.728Z,23.20
2022-11-20T12:10:49.689Z,22.90
2022-11-20T12:13:02.084Z,22.90
2022-11-20T12:15:26.752Z,25.00
2022-11-20T12:17:35.287Z,22.17
2022-11-20T12:19:41.263Z,22.63
2022-11-20T12:22:23.936Z,24.05
2022-11-20T12:24:41.895Z,24.67
2022-11-20T12:27:14.584Z,23.40
2022-11-20T12:29:38.394Z,23.40
2022-11-20T12:31:55.824Z,22.50
2022-11-20T12:34:20.437Z,22.45
2022-11-20T12:37:00.037Z,24.35
2022-11-20T12:39:42.686Z,22.38
2022-11-20T12:42:33.697Z,23.33
2022-11-20T12:45:03.805Z,24.73
2022-11-20T12:47:42.973Z,23.65
2022-11-20T12:50:10.936Z,23.52
2022-11-20T12:52:51.259Z,22.70
2022-11-20T12:55:35.124Z,24.67
2022-11-20T12:58:06.011Z,24.58
2022-11-20T13:00:09.043Z,24.85
2022-11-20T13:02:32.296Z,24.48
2022-11-20T13:04:38.304Z,24.98
2022-11-20T13:06:58.117Z,22.70
2022-11-20T13:09:12.636Z,22.52
2022-11-20T13:11:22.599Z,23.33
2022-11-20T13:13:58.046Z,24.45
2022-11-20T13:16:16.954Z,23.25
2022-11-20T13:18:19.843Z,25.55
2022-11-20T13:20:42.106Z,24.90
2022-11-20T13:23:07.237Z,23.67
2022-11-20T13:25:27.959Z,22.73
2022-11-20T13:27:32.572Z,22.27
2022-11-20T13:30:22.955Z,21.98
2022-11-20T13:32:26.345Z,24.30
2022-11-20T13:34:31.535Z,25.27
2022-11-20T13:36:54.555Z,25.08
2022-11-20T13:39:04.505Z,24.10
2022-11-20T13:41:28.289Z,25.50
2022-11-20T13:43:54.707Z,24.17
2022-11-20T13:46:06.197Z,25.25
2022-11-20T13:48:57.413Z,25.10
2022-11-20T13:51:32.529Z,25.60
2022-11-20T13:54:13.995Z,25.67
2022-11-20T13:56:51.664Z,24.83
2022-11-20T13:59:22.380Z,26.17
2022-11-20T14:01:47.422Z,23.92
2022-11-20T14:04:09.879Z,23.38
2022-11-20T14:06:30.117Z,24.90
2022-11-20T14:08:52.030Z,23.88
2022-11-20T14:13:22.153Z,29.90
2022-11-20T14:15:33.335Z,28.00
2022-11-20T14:17:46.346Z,27.38
2022-11-20T14:19:54.527Z,26.55
2022-11-20T14:22:23.563Z,26.98
2022-11-20T14:24:40.190Z,26.85
2022-11-20T14:26:48.552Z,28.35
2022-11-20T14:28:53.875Z,25.90
2022-11-20T14:31:18.749Z,26.33
2022-11-20T14:33:46.746Z,26.40
2022-11-20T14:35:56.291Z,25.23
2022-11-20T14:38:01.521Z,25.13
2022-11-20T14:40:04.603Z,24.83
2022-11-20T14:42:23.647Z,24.42
2022-11-20T14:44:34.925Z,26.85
2022-11-20T14:46:38.309Z,26.60
2022-11-20T14:48:52.802Z,30.65
2022-11-20T14:50:59.526Z,27.63
2022-11-20T14:53:02.874Z,27.85
2022-11-20T14:55:12.851Z,29.10
2022-11-20T14:57:55.742Z,30.92
2022-11-20T15:00:17.860Z,31.23
2022-11-20T15:02:20.353Z,29.30
2022-11-20T15:04:51.016Z,31.58
2022-11-20T15:06:58.431Z,34.75
2022-11-20T15:09:15.821Z,33.55
2022-11-20T15:11:35.350Z,27.75
2022-11-20T15:13:45.022Z,28.13
2022-11-20T15:15:57.740Z,29.50
2022-11-20T15:18:00.893Z,27.75
2022-11-20T15:20:08.257Z,28.80
2022-11-20T15:22:14.978Z,30.73
2022-11-20T15:24:23.807Z,29.67
2022-11-20T15:26:33.336Z,27.63
2022-11-20T15:28:51.568Z,29.63
2022-11-20T15:30:56.898Z,28.20
2022-11-20T15:32:59.140Z,26.88
2022-11-20T15:35:03.328Z,29.85
2022-11-20T15:37:06.465Z,33.55
2022-11-20T15:39:30.424Z,35.15
2022-11-20T15:41:36.970Z,27.00
2022-11-20T15:43:42.361Z,25.10
2022-11-20T15:45:46.986Z,32.38
2022-11-20T15:47:50.145Z,29.20
2022-11-20T15:50:00.783Z,28.95
2022-11-20T15:52:03.919Z,27.35
2022-11-20T15:54:27.542Z,29.70
2022-11-20T15:56:36.213Z,25.98
2022-11-20T15:58:39.961Z,33.00
2022-11-20T16:00:42.943Z,32.20
2022-11-20T16:02:45.950Z,29.33
2022-11-20T16:04:55.839Z,28.77
2022-11-20T16:06:59.677Z,25.02
2022-11-20T16:09:05.139Z,24.10
2022-11-20T16:11:07.676Z,24.63
2022-11-20T16:13:35.047Z,24.98
2022-11-20T16:15:48.029Z,24.75
2022-11-20T16:17:51.850Z,25.73
2022-11-20T16:20:04.199Z,25.98
2022-11-20T16:22:07.603Z,27.13
2022-11-20T16:24:13.981Z,30.05
2022-11-20T16:26:33.229Z,26.73
2022-11-20T16:28:35.822Z,26.13
2022-11-20T16:30:56.919Z,27.58
2022-11-20T16:33:17.517Z,26.48
2022-11-20T16:35:21.159Z,27.27
2022-11-20T16:37:27.968Z,28.73
2022-11-20T16:39:32.351Z,27.85
2022-11-20T16:41:36.268Z,29.33
2022-11-20T16:43:38.797Z,29.65
2022-11-20T16:45:47.547Z,26.88
2022-11-20T16:48:01.053Z,27.08
2022-11-20T16:50:08.146Z,27.30
2022-11-20T16:52:35.800Z,27.42
2022-11-20T16:54:40.076Z,26.83
2022-11-20T16:56:54.044Z,25.25
2022-11-20T16:59:14.193Z,26.90
2022-11-20T17:01:22.365Z,26.92
2022-11-20T17:03:26.101Z,28.17
2022-11-20T17:05:44.011Z,27.40
2022-11-20T17:07:48.355Z,26.20
2022-11-20T17:09:51.153Z,25.55
2022-11-20T17:12:11.959Z,24.02
2022-11-20T17:14:14.683Z,24.88
2022-11-20T17:16:23.211Z,25.63
2022-11-20T17:18:28.334Z,24.58
2022-11-20T17:20:32.927Z,25.48
2022-11-20T17:22:35.917Z,25.45
2022-11-20T17:24:41.810Z,27.35
2022-11-20T17:26:50.641Z,26.80
2022-11-20T17:29:02.062Z,28.77
2022-11-20T17:31:18.378Z,28.83
2022-11-20T17:33:20.735Z,29.70
2022-11-20T17:35:23.289Z,27.27
2022-11-20T17:37:27.053Z,28.35
2022-11-20T17:39:41.872Z,28.25
2022-11-20T17:42:12.111Z,29.08
2022-11-20T17:44:15.858Z,26.58
2022-11-20T17:46:22.395Z,26.95
2022-11-20T17:48:31.039Z,26.73
2022-11-20T17:50:38.588Z,24.98
2022-11-20T17:52:44.540Z,26.73
2022-11-20T17:54:47.068Z,25.33
2022-11-20T17:57:15.502Z,28.67
2022-11-20T17:59:19.474Z,28.70
2022-11-20T18:01:31.820Z,30.60
2022-11-20T18:03:35.874Z,27.88
2022-11-20T18:05:39.059Z,28.40
2022-11-20T18:07:53.769Z,27.13
2022-11-20T18:10:06.237Z,26.10
2022-11-20T18:12:17.026Z,27.05
2022-11-20T18:14:37.289Z,27.15
2022-11-20T18:16:46.973Z,29.17
2022-11-20T18:18:50.627Z,26.25
2022-11-20T18:20:56.565Z,27.45
2022-11-20T18:23:01.045Z,25.75
2022-11-20T18:25:03.827Z,25.35
2022-11-20T18:27:09.263Z,26.17
2022-11-20T18:29:13.719Z,28.00
2022-11-20T18:31:18.029Z,29.52
2022-11-20T18:33:23.075Z,26.80
2022-11-20T18:35:30.484Z,30.17
2022-11-20T18:37:55.814Z,30.10
2022-11-20T18:40:08.476Z,29.08
2022-11-20T18:42:35.448Z,29.25
2022-11-20T18:44:55.834Z,29.42
2022-11-20T18:47:14.217Z,29.33
2022-11-20T18:49:19.280Z,29.80
2022-11-20T18:51:23.293Z,28.35
2022-11-20T18:53:27.796Z,29.02
2022-11-20T18:55:31.546Z,28.40
2022-11-20T18:57:34.814Z,28.63
2022-11-20T18:59:47.399Z,28.00
2022-11-20T19:01:53.498Z,27.58
2022-11-20T19:03:58.248Z,27.60
2022-11-20T19:06:16.440Z,27.88
2022-11-20T19:08:18.846Z,28.17
2022-11-20T19:10:27.538Z,31.05
2022-11-20T19:12:30.579Z,31.05
2022-11-20T19:14:35.205Z,32.13
2022-11-20T19:16:49.379Z,33.72
2022-11-20T19:18:54.170Z,33.20
2022-11-20T19:21:15.189Z,33.78
2022-11-20T19:23:23.748Z,34.75
2022-11-20T19:25:38.173Z,36.00
2022-11-20T19:27:41.597Z,34.10
2022-11-20T19:29:44.116Z,34.17
2022-11-20T19:31:46.606Z,34.80
2022-11-20T19:33:54.944Z,32.95
2022-11-20T19:36:00.255Z,36.10
2022-11-20T19:38:14.204Z,36.42
2022-11-20T19:40:23.801Z,35.35
2022-11-20T19:42:29.393Z,33.65
2022-11-20T19:44:34.706Z,33.25
2022-11-20T19:46:43.551Z,31.45
2022-11-20T19:48:46.645Z,33.35
2022-11-20T19:50:52.070Z,31.05
2022-11-20T19:52:58.887Z,33.35
2022-11-20T19:55:04.918Z,32.58
2022-11-20T19:57:07.741Z,32.55
2022-11-20T19:59:15.819Z,34.55
2022-11-20T20:01:27.600Z,34.55
2022-11-20T20:03:30.393Z,33.85
2022-11-20T20:05:36.597Z,36.47
2022-11-20T20:07:46.649Z,35.65
2022-11-20T20:09:51.107Z,35.10
2022-11-20T20:12:04.796Z,34.70
2022-11-20T20:14:15.475Z,33.70
2022-11-20T20:16:21.611Z,36.70
2022-11-20T20:18:24.202Z,35.55
2022-11-20T20:20:37.720Z,35.72
2022-11-20T20:22:49.090Z,35.33
2022-11-20T20:24:54.326Z,32.13
2022-11-20T20:26:58.273Z,31.58
2022-11-20T20:29:02.938Z,31.90
2022-11-20T20:31:15.649Z,32.80
2022-11-20T20:33:20.475Z,33.17
2022-11-20T20:35:23.388Z,35.65
2022-11-20T20:37:26.017Z,35.30
2022-11-20T20:39:31.376Z,33.90
2022-11-20T20:41:33.945Z,34.00
2022-11-20T20:43:57.513Z,31.55
2022-11-20T20:45:59.926Z,31.65
2022-11-20T20:48:02.287Z,35.47
2022-11-20T20:50:10.177Z,34.63
2022-11-20T20:52:16.718Z,35.40
2022-11-20T20:54:19.212Z,36.63
2022-11-20T20:56:21.772Z,32.25
2022-11-20T20:58:24.819Z,31.70
2022-11-20T21:00:27.333Z,30.70
2022-11-20T21:02:29.843Z,32.33
2022-11-20T21:04:42.413Z,32.05
2022-11-20T21:06:44.745Z,31.20
2022-11-20T21:08:49.970Z,30.50
2022-11-20T21:10:55.208Z,31.00
2022-11-20T21:12:57.226Z,30.20
2022-11-20T21:15:00.075Z,29.55
2022-11-20T21:17:03.393Z,30.35
2022-11-20T21:19:05.612Z,30.42
2022-11-20T21:21:28.090Z,30.23
2022-11-20T21:23:30.730Z,31.70
2022-11-20T21:25:37.673Z,32.97
2022-11-20T21:27:39.841Z,34.08
2022-11-20T21:29:42.718Z,34.90
2022-11-20T21:31:45.390Z,34.63
2022-11-20T21:33:48.946Z,34.55
2022-11-20T21:35:50.868Z,34.55
2022-11-20T21:37:52.989Z,33.50
2022-11-20T21:39:55.094Z,34.17
2022-11-20T21:42:00.176Z,33.15
2022-11-20T21:46:28.705Z,34.50
2022-11-20T21:48:33.286Z,35.08
2022-11-20T21:50:35.667Z,33.78
2022-11-20T21:52:38.184Z,34.92
2022-11-20T21:54:40.186Z,34.25
2022-11-20T21:56:43.428Z,33.85
2022-11-20T21:58:46.269Z,33.63
2022-11-20T22:00:48.457Z,32.92
2022-11-20T22:02:53.625Z,36.30
2022-11-20T22:04:56.749Z,36.50
2022-11-20T22:06:58.854Z,35.70
2022-11-20T22:09:03.123Z,37.15
2022-11-20T22:11:09.012Z,36.50
2022-11-20T22:13:29.721Z,37.97
2022-11-20T22:15:58.849Z,39.28
2022-11-20T22:18:13.949Z,38.30
2022-11-20T22:20:19.441Z,37.15
2022-11-20T22:22:22.450Z,38.45
2022-11-20T22:24:26.561Z,39.75
2022-11-20T22:26:40.160Z,38.72
2022-11-20T22:28:46.386Z,40.88
2022-11-20T22:30:49.429Z,39.72
2022-11-20T22:32:54.279Z,40.05
2022-11-20T22:34:56.159Z,40.55
2022-11-20T22:36:58.153Z,38.63
2022-11-20T22:39:02.627Z,39.08
2022-11-20T22:41:19.723Z,39.38
2022-11-20T22:43:21.602Z,39.72
2022-11-20T22:45:26.447Z,41.78
2022-11-20T22:47:28.277Z,42.55
2022-11-20T22:49:30.395Z,42.38
2022-11-20T22:51:39.997Z,42.65
2022-11-20T22:53:43.082Z,40.53
2022-11-20T22:55:49.552Z,41.65
2022-11-20T22:57:51.593Z,42.65
2022-11-20T22:59:53.432Z,42.08
2022-11-20T23:01:55.310Z,42.22
2022-11-20T23:03:59.602Z,42.63
2022-11-20T23:06:02.217Z,44.53
2022-11-20T23:08:04.550Z,43.47
2022-11-20T23:10:10.256Z,41.42
2022-11-20T23:12:12.092Z,44.60
2022-11-20T23:14:15.506Z,42.47
2022-11-20T23:16:20.120Z,43.67
2022-11-20T23:18:23.308Z,43.10
2022-11-20T23:20:25.143Z,41.45
2022-11-20T23:22:27.011Z,42.83
2022-11-20T23:24:29.266Z,41.38
2022-11-20T23:26:34.353Z,42.08
2022-11-20T23:28:36.639Z,42.70
2022-11-20T23:30:39.586Z,42.10
2022-11-20T23:32:43.491Z,42.03
2022-11-20T23:34:45.341Z,41.47
2022-11-20T23:36:47.281Z,41.83
2022-11-20T23:38:49.126Z,41.58
2022-11-20T23:40:52.480Z,43.05
2022-11-20T23:43:12.746Z,44.67
2022-11-20T23:45:14.725Z,44.33
2022-11-20T23:47:16.567Z,43.72
2022-11-20T23:49:18.620Z,43.72
2022-11-20T23:51:20.510Z,42.75
2022-11-20T23:53:23.401Z,41.42
2022-11-20T23:55:25.234Z,43.60
2022-11-20T23:57:27.135Z,43.70
2022-11-20T23:59:29.027Z,42.88
